sensor_id;sensor_type;location;lat;lon;timestamp;pressure;altitude;pressure_sealevel;temperature;humidity
40872;BME280;26591;43.264;26.940;2022-12-18T00:00:44;99598.56;;;9.72;71.50
40872;BME280;26591;43.264;26.940;2022-12-18T00:03:12;99605.09;;;9.68;71.70
40872;BME280;26591;43.264;26.940;2022-12-18T00:05:48;99606.31;;;9.74;71.48
40872;BME280;26591;43.264;26.940;2022-12-18T00:08:15;99614.41;;;9.72;71.53
40872;BME280;26591;43.264;26.940;2022-12-18T00:10:42;99613.97;;;9.77;70.88
40872;BME280;26591;43.264;26.940;2022-12-18T00:13:07;99618.00;;;9.81;70.78
40872;BME280;26591;43.264;26.940;2022-12-18T00:15:34;99634.38;;;9.85;70.49
40872;BME280;26591;43.264;26.940;2022-12-18T00:18:00;99630.34;;;9.81;70.86
40872;BME280;26591;43.264;26.940;2022-12-18T00:20:25;99637.94;;;9.66;71.43
40872;BME280;26591;43.264;26.940;2022-12-18T00:22:52;99644.63;;;9.70;71.70
40872;BME280;26591;43.264;26.940;2022-12-18T00:25:18;99647.84;;;9.64;71.71
40872;BME280;26591;43.264;26.940;2022-12-18T00:27:43;99641.03;;;9.61;71.85
40872;BME280;26591;43.264;26.940;2022-12-18T00:30:09;99650.75;;;9.60;71.87
40872;BME280;26591;43.264;26.940;2022-12-18T00:32:35;99642.44;;;9.55;71.86
40872;BME280;26591;43.264;26.940;2022-12-18T00:35:00;99640.38;;;9.49;72.38
40872;BME280;26591;43.264;26.940;2022-12-18T00:37:26;99624.09;;;9.44;71.68
40872;BME280;26591;43.264;26.940;2022-12-18T00:39:51;99639.28;;;9.42;71.85
40872;BME280;26591;43.264;26.940;2022-12-18T00:42:17;99626.84;;;9.62;71.49
40872;BME280;26591;43.264;26.940;2022-12-18T00:45:01;99647.75;;;9.45;71.34
40872;BME280;26591;43.264;26.940;2022-12-18T00:47:26;99646.47;;;9.50;71.14
40872;BME280;26591;43.264;26.940;2022-12-18T00:49:52;99635.81;;;9.41;71.27
40872;BME280;26591;43.264;26.940;2022-12-18T00:52:17;99649.16;;;9.40;71.56
40872;BME280;26591;43.264;26.940;2022-12-18T00:54:43;99629.81;;;9.39;71.56
40872;BME280;26591;43.264;26.940;2022-12-18T00:57:08;99641.25;;;9.40;71.83
40872;BME280;26591;43.264;26.940;2022-12-18T00:59:33;99640.56;;;9.28;72.19
40872;BME280;26591;43.264;26.940;2022-12-18T01:02:01;99638.75;;;9.28;71.96
40872;BME280;26591;43.264;26.940;2022-12-18T01:04:27;99638.09;;;9.26;72.52
40872;BME280;26591;43.264;26.940;2022-12-18T01:06:53;99641.97;;;9.22;72.93
40872;BME280;26591;43.264;26.940;2022-12-18T01:09:19;99637.22;;;9.26;72.66
40872;BME280;26591;43.264;26.940;2022-12-18T01:11:44;99629.16;;;9.27;72.43
40872;BME280;26591;43.264;26.940;2022-12-18T01:14:10;99626.94;;;9.32;72.12
40872;BME280;26591;43.264;26.940;2022-12-18T01:16:35;99630.72;;;9.20;72.40
40872;BME280;26591;43.264;26.940;2022-12-18T01:19:01;99611.13;;;9.13;72.98
40872;BME280;26591;43.264;26.940;2022-12-18T01:21:26;99607.22;;;9.17;72.71
40872;BME280;26591;43.264;26.940;2022-12-18T01:23:53;99636.56;;;9.14;72.39
40872;BME280;26591;43.264;26.940;2022-12-18T01:26:20;99637.41;;;9.24;72.46
40872;BME280;26591;43.264;26.940;2022-12-18T01:28:45;99642.69;;;9.14;72.24
40872;BME280;26591;43.264;26.940;2022-12-18T01:31:31;99666.28;;;9.26;71.35
40872;BME280;26591;43.264;26.940;2022-12-18T01:33:58;99668.25;;;9.14;71.56
40872;BME280;26591;43.264;26.940;2022-12-18T01:36:28;99686.19;;;9.20;71.23
40872;BME280;26591;43.264;26.940;2022-12-18T01:38:54;99704.75;;;9.48;70.18
40872;BME280;26591;43.264;26.940;2022-12-18T01:41:23;99694.88;;;9.50;70.02
40872;BME280;26591;43.264;26.940;2022-12-18T01:43:55;99696.53;;;9.61;69.78
40872;BME280;26591;43.264;26.940;2022-12-18T01:46:23;99702.63;;;9.61;69.27
40872;BME280;26591;43.264;26.940;2022-12-18T01:48:57;99702.53;;;9.53;69.15
40872;BME280;26591;43.264;26.940;2022-12-18T01:51:27;99705.25;;;8.94;70.92
40872;BME280;26591;43.264;26.940;2022-12-18T01:53:52;99688.28;;;8.97;71.47
40872;BME280;26591;43.264;26.940;2022-12-18T01:56:19;99697.88;;;8.88;71.70
40872;BME280;26591;43.264;26.940;2022-12-18T01:58:54;99682.88;;;8.79;71.60
40872;BME280;26591;43.264;26.940;2022-12-18T02:01:23;99690.91;;;8.77;71.95
40872;BME280;26591;43.264;26.940;2022-12-18T02:03:49;99689.81;;;8.90;71.32
40872;BME280;26591;43.264;26.940;2022-12-18T02:06:26;99696.47;;;9.13;70.79
40872;BME280;26591;43.264;26.940;2022-12-18T02:19:37;99725.94;;;8.79;70.00
40872;BME280;26591;43.264;26.940;2022-12-18T02:22:29;99721.50;;;8.80;69.38
40872;BME280;26591;43.264;26.940;2022-12-18T02:26:02;99734.97;;;8.87;69.55
40872;BME280;26591;43.264;26.940;2022-12-18T02:28:11;99749.13;;;9.15;68.55
40872;BME280;26591;43.264;26.940;2022-12-18T02:30:39;99749.00;;;8.87;69.11
40872;BME280;26591;43.264;26.940;2022-12-18T02:33:07;99752.19;;;9.10;68.80
40872;BME280;26591;43.264;26.940;2022-12-18T02:35:34;99734.28;;;8.94;68.61
40872;BME280;26591;43.264;26.940;2022-12-18T02:38:03;99741.22;;;8.76;69.21
40872;BME280;26591;43.264;26.940;2022-12-18T02:40:30;99745.81;;;9.03;69.04
40872;BME280;26591;43.264;26.940;2022-12-18T02:43:12;99749.97;;;8.66;68.79
40872;BME280;26591;43.264;26.940;2022-12-18T02:45:54;99742.19;;;8.34;69.10
40872;BME280;26591;43.264;26.940;2022-12-18T02:48:24;99744.84;;;8.44;69.58
40872;BME280;26591;43.264;26.940;2022-12-18T02:53:41;99754.91;;;8.50;69.73
40872;BME280;26591;43.264;26.940;2022-12-18T02:56:20;99750.75;;;8.57;69.67
40872;BME280;26591;43.264;26.940;2022-12-18T02:59:02;99772.69;;;8.48;69.13
40872;BME280;26591;43.264;26.940;2022-12-18T03:01:40;99741.75;;;8.19;69.88
40872;BME280;26591;43.264;26.940;2022-12-18T03:04:14;99759.34;;;8.49;69.67
40872;BME280;26591;43.264;26.940;2022-12-18T03:06:46;99767.19;;;8.80;68.48
40872;BME280;26591;43.264;26.940;2022-12-18T03:09:36;99778.88;;;8.88;68.15
40872;BME280;26591;43.264;26.940;2022-12-18T03:12:16;99776.09;;;8.89;67.67
40872;BME280;26591;43.264;26.940;2022-12-18T03:15:05;99776.31;;;8.57;68.84
40872;BME280;26591;43.264;26.940;2022-12-18T03:17:33;99783.88;;;8.40;69.09
40872;BME280;26591;43.264;26.940;2022-12-18T03:20:11;99783.31;;;8.05;69.81
40872;BME280;26591;43.264;26.940;2022-12-18T03:22:38;99787.38;;;7.88;70.30
40872;BME280;26591;43.264;26.940;2022-12-18T03:25:09;99802.16;;;7.79;71.02
40872;BME280;26591;43.264;26.940;2022-12-18T03:27:38;99803.88;;;8.12;70.08
40872;BME280;26591;43.264;26.940;2022-12-18T03:30:08;99806.19;;;8.05;70.36
40872;BME280;26591;43.264;26.940;2022-12-18T03:32:43;99817.75;;;8.14;69.27
40872;BME280;26591;43.264;26.940;2022-12-18T03:35:11;99820.78;;;8.09;69.38
40872;BME280;26591;43.264;26.940;2022-12-18T03:37:38;99831.81;;;7.72;69.71
40872;BME280;26591;43.264;26.940;2022-12-18T03:40:05;99824.81;;;7.61;69.79
40872;BME280;26591;43.264;26.940;2022-12-18T03:42:50;99844.03;;;7.40;70.35
40872;BME280;26591;43.264;26.940;2022-12-18T03:45:33;99838.03;;;7.50;70.00
40872;BME280;26591;43.264;26.940;2022-12-18T03:48:06;99839.78;;;7.28;70.61
40872;BME280;26591;43.264;26.940;2022-12-18T03:53:40;99846.38;;;7.55;69.93
40872;BME280;26591;43.264;26.940;2022-12-18T03:56:04;99844.53;;;7.88;68.95
40872;BME280;26591;43.264;26.940;2022-12-18T03:58:32;99843.44;;;7.90;68.12
40872;BME280;26591;43.264;26.940;2022-12-18T04:01:01;99835.19;;;8.05;69.27
40872;BME280;26591;43.264;26.940;2022-12-18T04:03:29;99844.84;;;7.73;69.09
40872;BME280;26591;43.264;26.940;2022-12-18T04:05:57;99853.47;;;7.75;68.93
40872;BME280;26591;43.264;26.940;2022-12-18T04:08:24;99851.69;;;7.43;69.17
40872;BME280;26591;43.264;26.940;2022-12-18T04:10:51;99872.81;;;7.32;69.74
40872;BME280;26591;43.264;26.940;2022-12-18T04:13:31;99877.84;;;7.35;69.37
40872;BME280;26591;43.264;26.940;2022-12-18T04:15:57;99894.66;;;7.44;69.40
40872;BME280;26591;43.264;26.940;2022-12-18T04:18:23;99895.69;;;7.53;69.10
40872;BME280;26591;43.264;26.940;2022-12-18T04:20:48;99899.50;;;7.27;69.89
40872;BME280;26591;43.264;26.940;2022-12-18T04:23:14;99894.94;;;7.41;69.84
40872;BME280;26591;43.264;26.940;2022-12-18T04:25:39;99909.91;;;7.29;69.12
40872;BME280;26591;43.264;26.940;2022-12-18T04:28:05;99904.47;;;6.98;70.68
40872;BME280;26591;43.264;26.940;2022-12-18T04:30:32;99908.28;;;7.05;70.43
40872;BME280;26591;43.264;26.940;2022-12-18T04:32:58;99915.72;;;7.00;70.64
40872;BME280;26591;43.264;26.940;2022-12-18T04:35:23;99916.06;;;6.95;70.95
40872;BME280;26591;43.264;26.940;2022-12-18T04:37:51;99927.06;;;7.12;70.18
40872;BME280;26591;43.264;26.940;2022-12-18T04:40:17;99924.94;;;6.83;70.57
40872;BME280;26591;43.264;26.940;2022-12-18T04:42:43;99933.41;;;6.86;70.54
40872;BME280;26591;43.264;26.940;2022-12-18T04:45:08;99932.44;;;6.99;69.88
40872;BME280;26591;43.264;26.940;2022-12-18T04:47:34;99945.13;;;7.05;70.46
40872;BME280;26591;43.264;26.940;2022-12-18T04:50:01;99948.72;;;7.04;69.90
40872;BME280;26591;43.264;26.940;2022-12-18T04:52:41;99956.63;;;7.15;69.31
40872;BME280;26591;43.264;26.940;2022-12-18T04:55:07;99958.16;;;7.07;69.34
40872;BME280;26591;43.264;26.940;2022-12-18T04:57:33;99962.69;;;7.39;69.04
40872;BME280;26591;43.264;26.940;2022-12-18T04:59:58;99957.22;;;6.96;69.33
40872;BME280;26591;43.264;26.940;2022-12-18T05:02:24;99954.66;;;6.49;69.94
40872;BME280;26591;43.264;26.940;2022-12-18T05:04:49;99967.38;;;6.67;69.27
40872;BME280;26591;43.264;26.940;2022-12-18T05:07:24;99981.97;;;7.16;68.38
40872;BME280;26591;43.264;26.940;2022-12-18T05:09:50;99978.88;;;7.00;68.39
40872;BME280;26591;43.264;26.940;2022-12-18T05:12:15;99980.78;;;6.98;67.47
40872;BME280;26591;43.264;26.940;2022-12-18T05:14:41;99969.06;;;6.91;67.66
40872;BME280;26591;43.264;26.940;2022-12-18T05:17:06;99981.75;;;7.20;66.71
40872;BME280;26591;43.264;26.940;2022-12-18T05:19:32;99993.13;;;6.97;67.78
40872;BME280;26591;43.264;26.940;2022-12-18T05:21:57;100016.41;;;6.68;67.72
40872;BME280;26591;43.264;26.940;2022-12-18T05:24:23;100017.84;;;6.61;67.87
40872;BME280;26591;43.264;26.940;2022-12-18T05:26:49;100017.84;;;6.61;68.15
40872;BME280;26591;43.264;26.940;2022-12-18T05:29:15;100027.16;;;6.65;67.94
40872;BME280;26591;43.264;26.940;2022-12-18T05:31:41;100026.91;;;6.56;67.61
40872;BME280;26591;43.264;26.940;2022-12-18T05:34:06;100035.53;;;6.70;68.00
40872;BME280;26591;43.264;26.940;2022-12-18T05:36:32;100043.59;;;6.91;67.45
40872;BME280;26591;43.264;26.940;2022-12-18T05:38:57;100045.59;;;6.76;67.16
40872;BME280;26591;43.264;26.940;2022-12-18T05:41:23;100051.34;;;6.93;67.01
40872;BME280;26591;43.264;26.940;2022-12-18T05:43:48;100042.34;;;6.72;67.18
40872;BME280;26591;43.264;26.940;2022-12-18T05:46:16;100050.50;;;6.81;67.05
40872;BME280;26591;43.264;26.940;2022-12-18T05:48:45;100056.72;;;6.80;67.24
40872;BME280;26591;43.264;26.940;2022-12-18T05:51:16;100056.38;;;6.84;67.29
40872;BME280;26591;43.264;26.940;2022-12-18T05:53:43;100070.97;;;6.89;67.96
40872;BME280;26591;43.264;26.940;2022-12-18T05:56:13;100081.16;;;7.05;66.97
40872;BME280;26591;43.264;26.940;2022-12-18T05:58:40;100076.63;;;7.07;67.28
40872;BME280;26591;43.264;26.940;2022-12-18T06:01:13;100086.50;;;6.92;66.90
40872;BME280;26591;43.264;26.940;2022-12-18T06:03:42;100095.91;;;7.30;67.03
40872;BME280;26591;43.264;26.940;2022-12-18T06:06:25;100095.88;;;7.07;66.90
40872;BME280;26591;43.264;26.940;2022-12-18T06:08:51;100112.47;;;6.85;66.64
40872;BME280;26591;43.264;26.940;2022-12-18T06:11:19;100105.19;;;6.53;67.34
40872;BME280;26591;43.264;26.940;2022-12-18T06:13:45;100124.72;;;6.62;67.46
40872;BME280;26591;43.264;26.940;2022-12-18T06:16:11;100124.78;;;6.49;67.52
40872;BME280;26591;43.264;26.940;2022-12-18T06:18:37;100131.69;;;6.38;68.35
40872;BME280;26591;43.264;26.940;2022-12-18T06:21:02;100130.59;;;6.41;68.12
40872;BME280;26591;43.264;26.940;2022-12-18T06:23:37;100134.47;;;6.24;68.41
40872;BME280;26591;43.264;26.940;2022-12-18T06:26:07;100144.47;;;6.19;67.77
40872;BME280;26591;43.264;26.940;2022-12-18T06:28:33;100147.59;;;6.48;67.30
40872;BME280;26591;43.264;26.940;2022-12-18T06:30:59;100152.63;;;6.51;67.64
40872;BME280;26591;43.264;26.940;2022-12-18T06:33:28;100152.97;;;6.47;67.74
40872;BME280;26591;43.264;26.940;2022-12-18T06:35:54;100159.72;;;6.51;67.09
40872;BME280;26591;43.264;26.940;2022-12-18T06:38:24;100159.06;;;6.47;67.05
40872;BME280;26591;43.264;26.940;2022-12-18T06:40:49;100161.78;;;6.34;68.10
40872;BME280;26591;43.264;26.940;2022-12-18T06:43:15;100170.53;;;6.22;68.48
40872;BME280;26591;43.264;26.940;2022-12-18T06:45:40;100178.88;;;6.40;68.46
40872;BME280;26591;43.264;26.940;2022-12-18T06:48:06;100178.81;;;6.77;67.06
40872;BME280;26591;43.264;26.940;2022-12-18T06:50:31;100187.97;;;6.96;66.94
40872;BME280;26591;43.264;26.940;2022-12-18T06:52:56;100191.56;;;6.70;67.43
40872;BME280;26591;43.264;26.940;2022-12-18T06:55:22;100196.84;;;7.06;66.64
40872;BME280;26591;43.264;26.940;2022-12-18T06:57:47;100206.53;;;6.94;66.88
40872;BME280;26591;43.264;26.940;2022-12-18T07:00:13;100215.00;;;6.86;66.35
40872;BME280;26591;43.264;26.940;2022-12-18T07:02:39;100212.97;;;6.90;66.39
40872;BME280;26591;43.264;26.940;2022-12-18T07:05:06;100223.88;;;6.97;66.09
40872;BME280;26591;43.264;26.940;2022-12-18T07:07:33;100219.75;;;6.81;65.98
40872;BME280;26591;43.264;26.940;2022-12-18T07:09:59;100229.13;;;6.97;66.68
40872;BME280;26591;43.264;26.940;2022-12-18T07:12:24;100229.03;;;7.34;65.83
40872;BME280;26591;43.264;26.940;2022-12-18T07:14:51;100230.84;;;7.45;64.87
40872;BME280;26591;43.264;26.940;2022-12-18T07:17:16;100236.44;;;7.29;65.68
40872;BME280;26591;43.264;26.940;2022-12-18T07:19:42;100230.56;;;6.65;66.76
40872;BME280;26591;43.264;26.940;2022-12-18T07:22:07;100238.84;;;6.72;66.50
40872;BME280;26591;43.264;26.940;2022-12-18T07:24:33;100243.25;;;6.71;66.39
40872;BME280;26591;43.264;26.940;2022-12-18T07:26:59;100250.47;;;6.56;66.69
40872;BME280;26591;43.264;26.940;2022-12-18T07:29:26;100257.34;;;6.70;66.84
40872;BME280;26591;43.264;26.940;2022-12-18T07:31:51;100251.22;;;6.83;66.13
40872;BME280;26591;43.264;26.940;2022-12-18T07:34:17;100260.72;;;6.97;66.18
40872;BME280;26591;43.264;26.940;2022-12-18T07:36:42;100255.56;;;6.71;66.08
40872;BME280;26591;43.264;26.940;2022-12-18T07:39:08;100257.91;;;6.63;66.53
40872;BME280;26591;43.264;26.940;2022-12-18T07:41:36;100262.47;;;6.61;67.13
40872;BME280;26591;43.264;26.940;2022-12-18T07:44:02;100269.19;;;6.89;66.14
40872;BME280;26591;43.264;26.940;2022-12-18T07:46:28;100279.94;;;7.10;65.40
40872;BME280;26591;43.264;26.940;2022-12-18T07:48:53;100285.75;;;7.27;64.94
40872;BME280;26591;43.264;26.940;2022-12-18T07:51:19;100284.25;;;7.11;64.88
40872;BME280;26591;43.264;26.940;2022-12-18T07:53:44;100288.69;;;6.86;66.43
40872;BME280;26591;43.264;26.940;2022-12-18T07:56:11;100300.97;;;7.10;66.17
40872;BME280;26591;43.264;26.940;2022-12-18T07:58:38;100300.16;;;7.10;65.54
40872;BME280;26591;43.264;26.940;2022-12-18T08:01:11;100303.22;;;7.28;66.08
40872;BME280;26591;43.264;26.940;2022-12-18T08:03:38;100297.88;;;7.05;65.70
40872;BME280;26591;43.264;26.940;2022-12-18T08:06:06;100290.56;;;6.84;66.83
40872;BME280;26591;43.264;26.940;2022-12-18T08:08:32;100296.88;;;6.57;67.01
40872;BME280;26591;43.264;26.940;2022-12-18T08:10:58;100309.03;;;6.71;66.37
40872;BME280;26591;43.264;26.940;2022-12-18T08:13:24;100308.03;;;6.85;66.56
40872;BME280;26591;43.264;26.940;2022-12-18T08:16:02;100314.72;;;7.02;65.83
40872;BME280;26591;43.264;26.940;2022-12-18T08:18:28;100323.38;;;6.54;67.07
40872;BME280;26591;43.264;26.940;2022-12-18T08:20:55;100323.63;;;6.38;67.65
40872;BME280;26591;43.264;26.940;2022-12-18T08:23:21;100324.75;;;6.60;66.93
40872;BME280;26591;43.264;26.940;2022-12-18T08:25:48;100336.59;;;6.29;67.50
40872;BME280;26591;43.264;26.940;2022-12-18T08:28:15;100333.38;;;6.49;67.75
40872;BME280;26591;43.264;26.940;2022-12-18T08:30:40;100332.34;;;6.39;67.89
40872;BME280;26591;43.264;26.940;2022-12-18T08:33:06;100331.13;;;6.32;67.46
40872;BME280;26591;43.264;26.940;2022-12-18T08:35:35;100332.88;;;6.44;66.48
40872;BME280;26591;43.264;26.940;2022-12-18T08:38:01;100324.25;;;6.42;66.33
40872;BME280;26591;43.264;26.940;2022-12-18T08:40:27;100325.69;;;6.59;65.75
40872;BME280;26591;43.264;26.940;2022-12-18T08:42:52;100326.31;;;7.00;69.09
40872;BME280;26591;43.264;26.940;2022-12-18T08:45:36;100326.28;;;6.76;65.04
40872;BME280;26591;43.264;26.940;2022-12-18T08:48:02;100326.41;;;6.74;64.79
40872;BME280;26591;43.264;26.940;2022-12-18T08:50:28;100326.41;;;6.74;63.91
40872;BME280;26591;43.264;26.940;2022-12-18T08:52:53;100327.19;;;6.87;65.81
40872;BME280;26591;43.264;26.940;2022-12-18T08:55:19;100322.19;;;6.71;64.04
40872;BME280;26591;43.264;26.940;2022-12-18T08:57:48;100324.00;;;6.95;63.04
40872;BME280;26591;43.264;26.940;2022-12-18T09:00:14;100330.81;;;6.74;63.75
40872;BME280;26591;43.264;26.940;2022-12-18T09:02:39;100337.13;;;6.71;63.29
40872;BME280;26591;43.264;26.940;2022-12-18T09:05:05;100343.06;;;6.99;63.11
40872;BME280;26591;43.264;26.940;2022-12-18T09:07:34;100343.25;;;6.96;62.72
40872;BME280;26591;43.264;26.940;2022-12-18T09:09:59;100344.88;;;6.85;62.66
40872;BME280;26591;43.264;26.940;2022-12-18T09:12:25;100344.34;;;6.93;62.94
40872;BME280;26591;43.264;26.940;2022-12-18T09:14:50;100340.75;;;6.94;62.48
40872;BME280;26591;43.264;26.940;2022-12-18T09:17:16;100340.84;;;6.93;62.34
40872;BME280;26591;43.264;26.940;2022-12-18T09:19:41;100352.84;;;6.97;62.51
40872;BME280;26591;43.264;26.940;2022-12-18T09:22:07;100359.34;;;7.53;67.59
40872;BME280;26591;43.264;26.940;2022-12-18T09:24:32;100357.91;;;7.84;62.30
40872;BME280;26591;43.264;26.940;2022-12-18T09:26:58;100356.28;;;7.35;61.79
40872;BME280;26591;43.264;26.940;2022-12-18T09:29:24;100352.25;;;7.42;61.34
40872;BME280;26591;43.264;26.940;2022-12-18T09:31:52;100353.75;;;7.09;62.22
40872;BME280;26591;43.264;26.940;2022-12-18T09:34:17;100349.53;;;7.06;62.97
40872;BME280;26591;43.264;26.940;2022-12-18T09:36:43;100352.75;;;7.23;62.75
40872;BME280;26591;43.264;26.940;2022-12-18T09:39:08;100346.81;;;7.08;63.71
40872;BME280;26591;43.264;26.940;2022-12-18T09:41:46;100351.78;;;6.99;63.89
40872;BME280;26591;43.264;26.940;2022-12-18T09:44:23;100349.97;;;7.13;63.26
40872;BME280;26591;43.264;26.940;2022-12-18T09:47:03;100344.00;;;6.61;64.12
40872;BME280;26591;43.264;26.940;2022-12-18T09:49:38;100348.53;;;6.96;63.60
40872;BME280;26591;43.264;26.940;2022-12-18T09:52:12;100346.22;;;6.91;63.56
40872;BME280;26591;43.264;26.940;2022-12-18T09:54:40;100343.22;;;7.09;64.26
40872;BME280;26591;43.264;26.940;2022-12-18T09:57:18;100348.88;;;7.64;62.78
40872;BME280;26591;43.264;26.940;2022-12-18T09:59:50;100353.28;;;7.63;61.87
40872;BME280;26591;43.264;26.940;2022-12-18T10:02:19;100357.97;;;7.71;62.24
40872;BME280;26591;43.264;26.940;2022-12-18T10:04:55;100350.50;;;7.65;60.93
40872;BME280;26591;43.264;26.940;2022-12-18T10:10:14;100355.84;;;7.76;60.88
40872;BME280;26591;43.264;26.940;2022-12-18T10:15:23;100350.97;;;7.94;60.43
40872;BME280;26591;43.264;26.940;2022-12-18T10:17:58;100350.88;;;8.07;60.83
40872;BME280;26591;43.264;26.940;2022-12-18T10:20:40;100355.78;;;8.12;61.17
40872;BME280;26591;43.264;26.940;2022-12-18T10:23:25;100361.94;;;8.47;60.14
40872;BME280;26591;43.264;26.940;2022-12-18T10:26:07;100356.16;;;8.19;59.34
40872;BME280;26591;43.264;26.940;2022-12-18T10:28:38;100357.56;;;8.12;59.61
40872;BME280;26591;43.264;26.940;2022-12-18T10:31:14;100363.22;;;8.07;60.78
40872;BME280;26591;43.264;26.940;2022-12-18T10:33:42;100360.38;;;7.74;61.48
40872;BME280;26591;43.264;26.940;2022-12-18T10:36:08;100366.66;;;7.96;61.45
40872;BME280;26591;43.264;26.940;2022-12-18T10:38:33;100365.66;;;7.74;61.61
40872;BME280;26591;43.264;26.940;2022-12-18T10:43:34;100366.59;;;7.38;62.89
40872;BME280;26591;43.264;26.940;2022-12-18T10:51:31;100366.53;;;7.86;62.41
40872;BME280;26591;43.264;26.940;2022-12-18T10:54:05;100369.03;;;7.88;62.15
40872;BME280;26591;43.264;26.940;2022-12-18T10:56:35;100363.78;;;7.88;61.91
40872;BME280;26591;43.264;26.940;2022-12-18T10:59:03;100371.88;;;7.73;62.44
40872;BME280;26591;43.264;26.940;2022-12-18T11:04:23;100369.44;;;7.59;62.40
40872;BME280;26591;43.264;26.940;2022-12-18T11:07:04;100374.66;;;7.72;62.99
40872;BME280;26591;43.264;26.940;2022-12-18T11:10:00;100371.44;;;7.91;62.59
40872;BME280;26591;43.264;26.940;2022-12-18T11:12:28;100375.88;;;8.02;61.84
40872;BME280;26591;43.264;26.940;2022-12-18T11:14:58;100379.63;;;8.10;61.94
40872;BME280;26591;43.264;26.940;2022-12-18T11:17:29;100383.00;;;8.13;61.85
40872;BME280;26591;43.264;26.940;2022-12-18T11:19:58;100379.41;;;8.14;61.69
40872;BME280;26591;43.264;26.940;2022-12-18T11:22:30;100383.00;;;8.13;61.41
40872;BME280;26591;43.264;26.940;2022-12-18T11:24:59;100383.31;;;7.97;61.90
40872;BME280;26591;43.264;26.940;2022-12-18T11:27:26;100383.13;;;8.34;61.55
40872;BME280;26591;43.264;26.940;2022-12-18T11:30:08;100380.63;;;8.44;61.03
40872;BME280;26591;43.264;26.940;2022-12-18T11:32:37;100383.66;;;8.62;60.86
40872;BME280;26591;43.264;26.940;2022-12-18T11:35:10;100388.91;;;8.39;60.64
40872;BME280;26591;43.264;26.940;2022-12-18T11:37:40;100388.19;;;8.25;60.93
40872;BME280;26591;43.264;26.940;2022-12-18T11:40:19;100378.66;;;8.00;61.23
40872;BME280;26591;43.264;26.940;2022-12-18T11:42:52;100384.63;;;7.91;61.23
40872;BME280;26591;43.264;26.940;2022-12-18T11:45:34;100375.88;;;7.55;62.34
40872;BME280;26591;43.264;26.940;2022-12-18T11:48:56;100380.41;;;7.53;62.70
40872;BME280;26591;43.264;26.940;2022-12-18T11:51:25;100383.56;;;7.58;62.62
40872;BME280;26591;43.264;26.940;2022-12-18T11:53:53;100390.16;;;7.63;62.65
40872;BME280;26591;43.264;26.940;2022-12-18T11:56:32;100387.47;;;7.76;62.76
40872;BME280;26591;43.264;26.940;2022-12-18T11:59:26;100392.50;;;7.79;62.95
40872;BME280;26591;43.264;26.940;2022-12-18T12:18:41;100398.53;;;7.33;62.36
40872;BME280;26591;43.264;26.940;2022-12-18T12:21:23;100412.03;;;7.53;62.24
40872;BME280;26591;43.264;26.940;2022-12-18T12:24:55;100412.38;;;7.48;62.43
40872;BME280;26591;43.264;26.940;2022-12-18T12:29:37;100423.09;;;7.21;63.47
40872;BME280;26591;43.264;26.940;2022-12-18T12:35:37;100424.78;;;7.22;63.50
40872;BME280;26591;43.264;26.940;2022-12-18T12:38:37;100419.03;;;7.16;63.90
40872;BME280;26591;43.264;26.940;2022-12-18T12:41:09;100417.22;;;7.17;64.41
40872;BME280;26591;43.264;26.940;2022-12-18T12:43:58;100417.22;;;7.17;63.74
40872;BME280;26591;43.264;26.940;2022-12-18T12:46:26;100422.34;;;7.31;63.67
40872;BME280;26591;43.264;26.940;2022-12-18T12:49:15;100422.47;;;7.30;63.10
40872;BME280;26591;43.264;26.940;2022-12-18T12:51:46;100421.47;;;7.07;64.04
40872;BME280;26591;43.264;26.940;2022-12-18T12:54:18;100430.78;;;7.24;63.66
40872;BME280;26591;43.264;26.940;2022-12-18T12:57:11;100428.47;;;7.32;63.48
40872;BME280;26591;43.264;26.940;2022-12-18T12:59:42;100437.16;;;7.08;64.07
40872;BME280;26591;43.264;26.940;2022-12-18T13:08:10;100445.34;;;7.16;63.67
40872;BME280;26591;43.264;26.940;2022-12-18T13:15:46;100456.03;;;7.63;62.94
40872;BME280;26591;43.264;26.940;2022-12-18T13:18:18;100468.69;;;7.58;63.32
40872;BME280;26591;43.264;26.940;2022-12-18T13:21:20;100482.56;;;7.73;63.12
40872;BME280;26591;43.264;26.940;2022-12-18T13:23:48;100473.97;;;7.58;63.74
40872;BME280;26591;43.264;26.940;2022-12-18T13:31:14;100486.91;;;7.37;64.50
40872;BME280;26591;43.264;26.940;2022-12-18T13:33:44;100487.03;;;7.23;64.09
40872;BME280;26591;43.264;26.940;2022-12-18T13:36:37;100488.03;;;7.46;63.66
40872;BME280;26591;43.264;26.940;2022-12-18T13:39:11;100491.53;;;7.33;63.92
40872;BME280;26591;43.264;26.940;2022-12-18T13:41:51;100490.13;;;7.16;64.24
40872;BME280;26591;43.264;26.940;2022-12-18T13:46:50;100503.16;;;7.31;64.57
40872;BME280;26591;43.264;26.940;2022-12-18T13:49:58;100510.09;;;7.32;63.95
40872;BME280;26591;43.264;26.940;2022-12-18T13:52:34;100514.97;;;7.12;64.58
40872;BME280;26591;43.264;26.940;2022-12-18T13:55:05;100516.75;;;7.25;64.13
40872;BME280;26591;43.264;26.940;2022-12-18T13:59:58;100508.00;;;7.24;64.66
40872;BME280;26591;43.264;26.940;2022-12-18T14:02:40;100521.38;;;7.08;64.72
40872;BME280;26591;43.264;26.940;2022-12-18T14:05:24;100531.63;;;7.13;64.55
40872;BME280;26591;43.264;26.940;2022-12-18T14:07:50;100529.94;;;6.99;64.87
40872;BME280;26591;43.264;26.940;2022-12-18T14:10:16;100530.56;;;7.15;64.92
40872;BME280;26591;43.264;26.940;2022-12-18T14:12:47;100525.75;;;6.96;65.29
40872;BME280;26591;43.264;26.940;2022-12-18T14:17:53;100534.78;;;6.66;65.46
40872;BME280;26591;43.264;26.940;2022-12-18T14:20:20;100540.25;;;6.89;65.13
40872;BME280;26591;43.264;26.940;2022-12-18T14:22:47;100545.53;;;7.02;65.13
40872;BME280;26591;43.264;26.940;2022-12-18T14:25:20;100542.28;;;6.98;64.93
40872;BME280;26591;43.264;26.940;2022-12-18T14:30:40;100540.88;;;6.93;64.77
40872;BME280;26591;43.264;26.940;2022-12-18T14:33:13;100554.25;;;7.15;65.39